sensor_id;sensor_type;location;lat;lon;timestamp;P1;durP1;ratioP1;P2;durP2;ratioP2
62123;SDS011;48110;47.532;19.078;2023-05-10T00:02:27;3.28;;;2.08;;
62123;SDS011;48110;47.532;19.078;2023-05-10T00:05:31;2.87;;;2.00;;
62123;SDS011;48110;47.532;19.078;2023-05-10T00:08:33;5.95;;;2.33;;
62123;SDS011;48110;47.532;19.078;2023-05-10T00:11:36;3.87;;;1.87;;
62123;SDS011;48110;47.532;19.078;2023-05-10T00:14:39;4.47;;;2.20;;
62123;SDS011;48110;47.532;19.078;2023-05-10T00:17:42;5.75;;;2.50;;
62123;SDS011;48110;47.532;19.078;2023-05-10T00:20:44;4.30;;;2.50;;
62123;SDS011;48110;47.532;19.078;2023-05-10T00:23:48;4.87;;;2.25;;
62123;SDS011;48110;47.532;19.078;2023-05-10T00:26:51;5.15;;;2.42;;
62123;SDS011;48110;47.532;19.078;2023-05-10T00:29:54;4.10;;;2.50;;
62123;SDS011;48110;47.532;19.078;2023-05-10T00:32:56;7.65;;;2.97;;
62123;SDS011;48110;47.532;19.078;2023-05-10T00:35:59;4.03;;;2.55;;
62123;SDS011;48110;47.532;19.078;2023-05-10T00:39:02;7.05;;;2.60;;
62123;SDS011;48110;47.532;19.078;2023-05-10T00:42:06;3.45;;;2.65;;
62123;SDS011;48110;47.532;19.078;2023-05-10T00:45:09;3.60;;;2.50;;
62123;SDS011;48110;47.532;19.078;2023-05-10T00:48:12;3.37;;;2.60;;
62123;SDS011;48110;47.532;19.078;2023-05-10T00:51:15;4.50;;;2.67;;
62123;SDS011;48110;47.532;19.078;2023-05-10T00:54:18;4.37;;;2.62;;
62123;SDS011;48110;47.532;19.078;2023-05-10T00:57:21;5.68;;;2.72;;
62123;SDS011;48110;47.532;19.078;2023-05-10T01:00:24;5.90;;;2.85;;
62123;SDS011;48110;47.532;19.078;2023-05-10T01:03:28;6.87;;;2.95;;
62123;SDS011;48110;47.532;19.078;2023-05-10T01:06:31;5.37;;;2.95;;
62123;SDS011;48110;47.532;19.078;2023-05-10T01:09:34;5.07;;;3.28;;
62123;SDS011;48110;47.532;19.078;2023-05-10T01:12:38;4.28;;;2.87;;
62123;SDS011;48110;47.532;19.078;2023-05-10T01:15:43;3.92;;;3.12;;
62123;SDS011;48110;47.532;19.078;2023-05-10T01:18:47;7.00;;;3.15;;
62123;SDS011;48110;47.532;19.078;2023-05-10T01:28:55;5.82;;;3.05;;
62123;SDS011;48110;47.532;19.078;2023-05-10T01:38:36;5.15;;;3.03;;
62123;SDS011;48110;47.532;19.078;2023-05-10T01:41:49;8.23;;;3.28;;
62123;SDS011;48110;47.532;19.078;2023-05-10T01:45:02;9.93;;;3.33;;
62123;SDS011;48110;47.532;19.078;2023-05-10T01:48:15;3.87;;;3.10;;
62123;SDS011;48110;47.532;19.078;2023-05-10T01:51:22;5.97;;;3.03;;
62123;SDS011;48110;47.532;19.078;2023-05-10T01:54:27;6.47;;;2.92;;
62123;SDS011;48110;47.532;19.078;2023-05-10T01:57:32;4.28;;;3.17;;
62123;SDS011;48110;47.532;19.078;2023-05-10T02:00:37;3.47;;;2.87;;
62123;SDS011;48110;47.532;19.078;2023-05-10T02:03:43;3.37;;;2.78;;
62123;SDS011;48110;47.532;19.078;2023-05-10T02:06:46;7.37;;;3.17;;
62123;SDS011;48110;47.532;19.078;2023-05-10T02:09:50;6.18;;;3.03;;
62123;SDS011;48110;47.532;19.078;2023-05-10T02:12:53;7.05;;;3.00;;
62123;SDS011;48110;47.532;19.078;2023-05-10T02:16:00;5.32;;;3.08;;
62123;SDS011;48110;47.532;19.078;2023-05-10T02:19:05;3.15;;;2.80;;
62123;SDS011;48110;47.532;19.078;2023-05-10T02:22:11;4.47;;;3.08;;
62123;SDS011;48110;47.532;19.078;2023-05-10T02:25:15;4.43;;;3.25;;
62123;SDS011;48110;47.532;19.078;2023-05-10T02:28:18;4.68;;;3.00;;
62123;SDS011;48110;47.532;19.078;2023-05-10T02:31:22;9.93;;;3.33;;
62123;SDS011;48110;47.532;19.078;2023-05-10T02:34:25;5.75;;;3.28;;
62123;SDS011;48110;47.532;19.078;2023-05-10T02:37:29;6.97;;;3.12;;
62123;SDS011;48110;47.532;19.078;2023-05-10T02:40:34;6.80;;;3.20;;
62123;SDS011;48110;47.532;19.078;2023-05-10T02:43:39;7.57;;;3.33;;
62123;SDS011;48110;47.532;19.078;2023-05-10T02:46:42;5.25;;;2.90;;
62123;SDS011;48110;47.532;19.078;2023-05-10T02:49:46;5.68;;;3.22;;
62123;SDS011;48110;47.532;19.078;2023-05-10T02:52:50;3.85;;;3.17;;
62123;SDS011;48110;47.532;19.078;2023-05-10T02:55:57;8.50;;;2.72;;
62123;SDS011;48110;47.532;19.078;2023-05-10T02:59:03;5.40;;;2.90;;
62123;SDS011;48110;47.532;19.078;2023-05-10T03:02:06;5.10;;;3.17;;
62123;SDS011;48110;47.532;19.078;2023-05-10T03:05:09;6.85;;;3.03;;
62123;SDS011;48110;47.532;19.078;2023-05-10T03:08:12;4.87;;;3.12;;
62123;SDS011;48110;47.532;19.078;2023-05-10T03:21:08;10.23;;;3.58;;
62123;SDS011;48110;47.532;19.078;2023-05-10T03:24:15;4.87;;;2.95;;
62123;SDS011;48110;47.532;19.078;2023-05-10T03:27:23;7.32;;;3.25;;
62123;SDS011;48110;47.532;19.078;2023-05-10T03:30:27;8.02;;;3.70;;
62123;SDS011;48110;47.532;19.078;2023-05-10T03:33:31;7.78;;;3.10;;
62123;SDS011;48110;47.532;19.078;2023-05-10T03:36:34;4.97;;;3.10;;
62123;SDS011;48110;47.532;19.078;2023-05-10T03:39:37;4.45;;;3.55;;
62123;SDS011;48110;47.532;19.078;2023-05-10T03:42:40;7.03;;;3.30;;
62123;SDS011;48110;47.532;19.078;2023-05-10T03:45:43;3.80;;;3.15;;
62123;SDS011;48110;47.532;19.078;2023-05-10T03:48:46;4.65;;;3.10;;
62123;SDS011;48110;47.532;19.078;2023-05-10T03:51:49;8.70;;;3.58;;
62123;SDS011;48110;47.532;19.078;2023-05-10T03:54:52;8.52;;;3.72;;
62123;SDS011;48110;47.532;19.078;2023-05-10T03:57:55;5.15;;;3.75;;
62123;SDS011;48110;47.532;19.078;2023-05-10T04:00:57;5.05;;;3.60;;
62123;SDS011;48110;47.532;19.078;2023-05-10T04:04:00;4.90;;;3.45;;
62123;SDS011;48110;47.532;19.078;2023-05-10T04:07:05;6.12;;;3.45;;
62123;SDS011;48110;47.532;19.078;2023-05-10T04:10:09;6.43;;;3.42;;
62123;SDS011;48110;47.532;19.078;2023-05-10T04:13:11;6.37;;;3.50;;
62123;SDS011;48110;47.532;19.078;2023-05-10T04:16:14;5.93;;;3.80;;
62123;SDS011;48110;47.532;19.078;2023-05-10T04:19:17;5.70;;;3.30;;
62123;SDS011;48110;47.532;19.078;2023-05-10T04:22:20;8.50;;;3.50;;
62123;SDS011;48110;47.532;19.078;2023-05-10T04:25:22;8.40;;;3.35;;
62123;SDS011;48110;47.532;19.078;2023-05-10T04:28:25;4.62;;;3.37;;
62123;SDS011;48110;47.532;19.078;2023-05-10T04:31:29;5.60;;;3.45;;
62123;SDS011;48110;47.532;19.078;2023-05-10T04:34:32;9.13;;;3.62;;
62123;SDS011;48110;47.532;19.078;2023-05-10T04:37:36;5.78;;;3.95;;
62123;SDS011;48110;47.532;19.078;2023-05-10T04:40:39;5.00;;;3.85;;
62123;SDS011;48110;47.532;19.078;2023-05-10T04:43:41;9.27;;;3.95;;
62123;SDS011;48110;47.532;19.078;2023-05-10T04:46:44;5.10;;;3.40;;
62123;SDS011;48110;47.532;19.078;2023-05-10T04:49:47;5.65;;;4.10;;
62123;SDS011;48110;47.532;19.078;2023-05-10T04:52:50;7.75;;;3.83;;
62123;SDS011;48110;47.532;19.078;2023-05-10T04:55:54;8.60;;;3.90;;
62123;SDS011;48110;47.532;19.078;2023-05-10T04:58:57;8.25;;;3.92;;
62123;SDS011;48110;47.532;19.078;2023-05-10T05:02:00;8.57;;;4.10;;
62123;SDS011;48110;47.532;19.078;2023-05-10T05:05:03;8.77;;;4.10;;
62123;SDS011;48110;47.532;19.078;2023-05-10T05:08:06;6.45;;;3.45;;
62123;SDS011;48110;47.532;19.078;2023-05-10T05:11:09;5.30;;;3.65;;
62123;SDS011;48110;47.532;19.078;2023-05-10T05:14:12;6.25;;;3.90;;
62123;SDS011;48110;47.532;19.078;2023-05-10T05:17:15;6.55;;;3.87;;
62123;SDS011;48110;47.532;19.078;2023-05-10T05:20:18;6.07;;;3.70;;
62123;SDS011;48110;47.532;19.078;2023-05-10T05:23:21;5.82;;;3.70;;
62123;SDS011;48110;47.532;19.078;2023-05-10T05:26:26;5.70;;;4.10;;
62123;SDS011;48110;47.532;19.078;2023-05-10T05:29:29;5.47;;;4.15;;
62123;SDS011;48110;47.532;19.078;2023-05-10T05:32:32;7.97;;;4.22;;
62123;SDS011;48110;47.532;19.078;2023-05-10T05:35:35;6.90;;;3.92;;
62123;SDS011;48110;47.532;19.078;2023-05-10T05:38:38;7.70;;;4.03;;
62123;SDS011;48110;47.532;19.078;2023-05-10T05:41:41;10.60;;;4.40;;
62123;SDS011;48110;47.532;19.078;2023-05-10T05:44:43;12.57;;;4.60;;
62123;SDS011;48110;47.532;19.078;2023-05-10T05:47:46;7.82;;;3.80;;
62123;SDS011;48110;47.532;19.078;2023-05-10T05:50:49;7.22;;;4.10;;
62123;SDS011;48110;47.532;19.078;2023-05-10T05:53:52;7.12;;;4.37;;
62123;SDS011;48110;47.532;19.078;2023-05-10T05:56:55;11.70;;;4.12;;
62123;SDS011;48110;47.532;19.078;2023-05-10T06:00:02;7.15;;;3.92;;
62123;SDS011;48110;47.532;19.078;2023-05-10T06:03:13;7.57;;;3.87;;
62123;SDS011;48110;47.532;19.078;2023-05-10T06:06:16;6.28;;;3.90;;
62123;SDS011;48110;47.532;19.078;2023-05-10T06:09:19;7.30;;;4.03;;
62123;SDS011;48110;47.532;19.078;2023-05-10T06:12:22;7.85;;;3.87;;
62123;SDS011;48110;47.532;19.078;2023-05-10T06:15:24;8.50;;;4.37;;
62123;SDS011;48110;47.532;19.078;2023-05-10T06:18:28;6.70;;;4.05;;
62123;SDS011;48110;47.532;19.078;2023-05-10T06:21:31;11.75;;;3.70;;
62123;SDS011;48110;47.532;19.078;2023-05-10T06:24:33;6.62;;;3.95;;
62123;SDS011;48110;47.532;19.078;2023-05-10T06:27:36;6.95;;;3.92;;
62123;SDS011;48110;47.532;19.078;2023-05-10T06:30:39;7.37;;;3.92;;
62123;SDS011;48110;47.532;19.078;2023-05-10T06:33:42;6.32;;;3.75;;
62123;SDS011;48110;47.532;19.078;2023-05-10T06:36:45;11.90;;;3.83;;
62123;SDS011;48110;47.532;19.078;2023-05-10T06:39:47;8.02;;;4.57;;
62123;SDS011;48110;47.532;19.078;2023-05-10T06:42:51;10.35;;;4.10;;
62123;SDS011;48110;47.532;19.078;2023-05-10T06:45:53;8.25;;;3.87;;
62123;SDS011;48110;47.532;19.078;2023-05-10T06:48:56;7.53;;;3.47;;
62123;SDS011;48110;47.532;19.078;2023-05-10T06:51:59;6.45;;;4.00;;
62123;SDS011;48110;47.532;19.078;2023-05-10T06:55:22;7.70;;;3.97;;
62123;SDS011;48110;47.532;19.078;2023-05-10T06:58:24;9.57;;;3.87;;
62123;SDS011;48110;47.532;19.078;2023-05-10T07:01:27;5.78;;;3.85;;
62123;SDS011;48110;47.532;19.078;2023-05-10T07:04:29;5.70;;;3.78;;
62123;SDS011;48110;47.532;19.078;2023-05-10T07:07:32;11.15;;;4.20;;
62123;SDS011;48110;47.532;19.078;2023-05-10T07:10:35;14.70;;;7.72;;
62123;SDS011;48110;47.532;19.078;2023-05-10T07:13:38;5.70;;;4.30;;
62123;SDS011;48110;47.532;19.078;2023-05-10T07:16:43;8.15;;;4.03;;
62123;SDS011;48110;47.532;19.078;2023-05-10T07:19:47;5.00;;;3.53;;
62123;SDS011;48110;47.532;19.078;2023-05-10T07:22:49;4.57;;;3.12;;
62123;SDS011;48110;47.532;19.078;2023-05-10T07:25:53;4.95;;;3.35;;
62123;SDS011;48110;47.532;19.078;2023-05-10T07:28:56;5.18;;;3.33;;
62123;SDS011;48110;47.532;19.078;2023-05-10T07:31:59;7.50;;;3.53;;
62123;SDS011;48110;47.532;19.078;2023-05-10T07:35:02;4.82;;;3.62;;
62123;SDS011;48110;47.532;19.078;2023-05-10T07:38:05;6.32;;;3.40;;
62123;SDS011;48110;47.532;19.078;2023-05-10T07:41:08;7.00;;;3.25;;
62123;SDS011;48110;47.532;19.078;2023-05-10T07:44:12;5.28;;;3.05;;
62123;SDS011;48110;47.532;19.078;2023-05-10T07:47:14;3.90;;;3.05;;
62123;SDS011;48110;47.532;19.078;2023-05-10T07:50:17;7.20;;;2.78;;
62123;SDS011;48110;47.532;19.078;2023-05-10T07:53:20;4.78;;;2.80;;
62123;SDS011;48110;47.532;19.078;2023-05-10T07:56:24;6.05;;;2.95;;
62123;SDS011;48110;47.532;19.078;2023-05-10T07:59:31;6.78;;;2.92;;
62123;SDS011;48110;47.532;19.078;2023-05-10T08:02:36;8.50;;;2.75;;
62123;SDS011;48110;47.532;19.078;2023-05-10T08:05:39;5.68;;;2.83;;
62123;SDS011;48110;47.532;19.078;2023-05-10T08:08:42;5.22;;;2.67;;
62123;SDS011;48110;47.532;19.078;2023-05-10T08:11:45;5.85;;;3.10;;
62123;SDS011;48110;47.532;19.078;2023-05-10T08:14:48;3.72;;;2.80;;
62123;SDS011;48110;47.532;19.078;2023-05-10T08:17:51;7.95;;;2.83;;
62123;SDS011;48110;47.532;19.078;2023-05-10T08:20:54;2.67;;;2.22;;
62123;SDS011;48110;47.532;19.078;2023-05-10T08:23:57;4.53;;;2.72;;
62123;SDS011;48110;47.532;19.078;2023-05-10T08:27:00;4.20;;;2.55;;
62123;SDS011;48110;47.532;19.078;2023-05-10T08:30:03;59.33;;;4.68;;
62123;SDS011;48110;47.532;19.078;2023-05-10T08:33:06;27.65;;;3.28;;
62123;SDS011;48110;47.532;19.078;2023-05-10T08:36:09;4.00;;;2.28;;
62123;SDS011;48110;47.532;19.078;2023-05-10T08:39:11;8.25;;;2.65;;
62123;SDS011;48110;47.532;19.078;2023-05-10T08:42:30;7.90;;;2.87;;
62123;SDS011;48110;47.532;19.078;2023-05-10T08:45:39;18.23;;;3.12;;
62123;SDS011;48110;47.532;19.078;2023-05-10T08:48:47;5.10;;;2.87;;
62123;SDS011;48110;47.532;19.078;2023-05-10T08:51:52;14.63;;;2.65;;
62123;SDS011;48110;47.532;19.078;2023-05-10T08:54:57;7.15;;;2.35;;
62123;SDS011;48110;47.532;19.078;2023-05-10T08:58:00;7.22;;;2.67;;
62123;SDS011;48110;47.532;19.078;2023-05-10T09:01:03;3.85;;;2.42;;
62123;SDS011;48110;47.532;19.078;2023-05-10T09:04:07;21.00;;;3.37;;
62123;SDS011;48110;47.532;19.078;2023-05-10T09:07:10;4.55;;;2.45;;
62123;SDS011;48110;47.532;19.078;2023-05-10T09:10:13;6.05;;;2.30;;
62123;SDS011;48110;47.532;19.078;2023-05-10T09:13:17;8.90;;;2.10;;
62123;SDS011;48110;47.532;19.078;2023-05-10T09:16:21;5.47;;;2.40;;
62123;SDS011;48110;47.532;19.078;2023-05-10T09:19:24;4.82;;;2.28;;
62123;SDS011;48110;47.532;19.078;2023-05-10T09:22:26;14.70;;;2.50;;
62123;SDS011;48110;47.532;19.078;2023-05-10T09:25:29;4.18;;;2.30;;
62123;SDS011;48110;47.532;19.078;2023-05-10T09:28:54;5.25;;;2.00;;
62123;SDS011;48110;47.532;19.078;2023-05-10T09:32:00;3.53;;;2.10;;
62123;SDS011;48110;47.532;19.078;2023-05-10T09:35:09;4.82;;;2.25;;
62123;SDS011;48110;47.532;19.078;2023-05-10T09:38:13;10.60;;;2.87;;
62123;SDS011;48110;47.532;19.078;2023-05-10T09:41:17;13.85;;;2.10;;
62123;SDS011;48110;47.532;19.078;2023-05-10T09:44:21;9.07;;;2.40;;
62123;SDS011;48110;47.532;19.078;2023-05-10T09:47:24;9.27;;;2.22;;
62123;SDS011;48110;47.532;19.078;2023-05-10T09:50:29;2.85;;;2.20;;
62123;SDS011;48110;47.532;19.078;2023-05-10T09:53:32;2.80;;;1.90;;
62123;SDS011;48110;47.532;19.078;2023-05-10T09:56:36;3.85;;;2.10;;
62123;SDS011;48110;47.532;19.078;2023-05-10T09:59:42;10.10;;;1.92;;
62123;SDS011;48110;47.532;19.078;2023-05-10T10:03:05;4.78;;;2.00;;
62123;SDS011;48110;47.532;19.078;2023-05-10T10:06:08;3.08;;;1.73;;
62123;SDS011;48110;47.532;19.078;2023-05-10T10:09:24;4.10;;;1.60;;
62123;SDS011;48110;47.532;19.078;2023-05-10T10:12:28;2.75;;;1.75;;
62123;SDS011;48110;47.532;19.078;2023-05-10T10:15:30;2.33;;;2.10;;
62123;SDS011;48110;47.532;19.078;2023-05-10T10:18:35;3.05;;;1.98;;
62123;SDS011;48110;47.532;19.078;2023-05-10T10:21:42;3.72;;;1.95;;
62123;SDS011;48110;47.532;19.078;2023-05-10T10:24:45;3.75;;;1.90;;
62123;SDS011;48110;47.532;19.078;2023-05-10T10:31:01;4.70;;;1.77;;
62123;SDS011;48110;47.532;19.078;2023-05-10T10:34:26;2.33;;;1.90;;
62123;SDS011;48110;47.532;19.078;2023-05-10T10:37:43;4.93;;;1.90;;
62123;SDS011;48110;47.532;19.078;2023-05-10T10:40:47;3.08;;;1.95;;
62123;SDS011;48110;47.532;19.078;2023-05-10T10:47:27;1.83;;;1.70;;
62123;SDS011;48110;47.532;19.078;2023-05-10T10:50:43;6.32;;;1.95;;
62123;SDS011;48110;47.532;19.078;2023-05-10T10:53:47;3.92;;;1.55;;
62123;SDS011;48110;47.532;19.078;2023-05-10T10:57:09;4.87;;;1.70;;
62123;SDS011;48110;47.532;19.078;2023-05-10T11:00:32;2.03;;;1.40;;
62123;SDS011;48110;47.532;19.078;2023-05-10T11:03:38;1.77;;;1.67;;
62123;SDS011;48110;47.532;19.078;2023-05-10T11:06:41;4.22;;;1.50;;
62123;SDS011;48110;47.532;19.078;2023-05-10T11:09:45;2.40;;;1.77;;
62123;SDS011;48110;47.532;19.078;2023-05-10T11:12:55;3.47;;;1.50;;
62123;SDS011;48110;47.532;19.078;2023-05-10T11:16:12;2.47;;;1.20;;
62123;SDS011;48110;47.532;19.078;2023-05-10T11:19:19;4.40;;;1.45;;
62123;SDS011;48110;47.532;19.078;2023-05-10T11:22:22;3.33;;;1.55;;
62123;SDS011;48110;47.532;19.078;2023-05-10T11:25:27;3.40;;;1.75;;
62123;SDS011;48110;47.532;19.078;2023-05-10T11:28:30;4.60;;;1.35;;
62123;SDS011;48110;47.532;19.078;2023-05-10T11:31:34;5.00;;;1.42;;
62123;SDS011;48110;47.532;19.078;2023-05-10T11:34:38;4.78;;;1.80;;
62123;SDS011;48110;47.532;19.078;2023-05-10T11:37:40;3.62;;;1.20;;
62123;SDS011;48110;47.532;19.078;2023-05-10T11:40:46;4.65;;;1.40;;
62123;SDS011;48110;47.532;19.078;2023-05-10T11:43:49;1.62;;;1.30;;
62123;SDS011;48110;47.532;19.078;2023-05-10T11:46:53;3.33;;;1.33;;
62123;SDS011;48110;47.532;19.078;2023-05-10T11:49:57;4.87;;;1.33;;
62123;SDS011;48110;47.532;19.078;2023-05-10T11:53:00;13.55;;;2.22;;
62123;SDS011;48110;47.532;19.078;2023-05-10T11:59:07;2.78;;;1.50;;
62123;SDS011;48110;47.532;19.078;2023-05-10T12:02:10;4.07;;;1.70;;
62123;SDS011;48110;47.532;19.078;2023-05-10T12:05:15;2.78;;;1.60;;
62123;SDS011;48110;47.532;19.078;2023-05-10T12:08:25;3.45;;;1.70;;
62123;SDS011;48110;47.532;19.078;2023-05-10T12:11:30;1.87;;;1.52;;
62123;SDS011;48110;47.532;19.078;2023-05-10T12:14:34;4.53;;;1.75;;
62123;SDS011;48110;47.532;19.078;2023-05-10T12:17:38;3.65;;;1.40;;
62123;SDS011;48110;47.532;19.078;2023-05-10T12:20:44;5.22;;;1.40;;
62123;SDS011;48110;47.532;19.078;2023-05-10T12:23:51;3.80;;;1.65;;
62123;SDS011;48110;47.532;19.078;2023-05-10T12:26:54;2.78;;;1.48;;
62123;SDS011;48110;47.532;19.078;2023-05-10T12:29:59;1.70;;;1.30;;
62123;SDS011;48110;47.532;19.078;2023-05-10T12:36:22;7.50;;;1.50;;
62123;SDS011;48110;47.532;19.078;2023-05-10T12:39:25;5.65;;;1.35;;
62123;SDS011;48110;47.532;19.078;2023-05-10T12:42:28;3.42;;;1.75;;
62123;SDS011;48110;47.532;19.078;2023-05-10T12:45:31;3.92;;;1.12;;
62123;SDS011;48110;47.532;19.078;2023-05-10T12:48:35;2.42;;;1.55;;
62123;SDS011;48110;47.532;19.078;2023-05-10T12:51:38;5.10;;;1.60;;
62123;SDS011;48110;47.532;19.078;2023-05-10T12:54:41;6.57;;;1.27;;
62123;SDS011;48110;47.532;19.078;2023-05-10T12:57:44;1.62;;;1.35;;
62123;SDS011;48110;47.532;19.078;2023-05-10T13:00:46;6.93;;;1.50;;
62123;SDS011;48110;47.532;19.078;2023-05-10T13:03:49;4.55;;;1.60;;
62123;SDS011;48110;47.532;19.078;2023-05-10T13:06:53;3.12;;;1.33;;
62123;SDS011;48110;47.532;19.078;2023-05-10T13:09:57;3.72;;;1.60;;
62123;SDS011;48110;47.532;19.078;2023-05-10T13:13:00;6.07;;;1.40;;
62123;SDS011;48110;47.532;19.078;2023-05-10T13:16:03;4.75;;;1.25;;
62123;SDS011;48110;47.532;19.078;2023-05-10T13:19:06;3.10;;;1.45;;
62123;SDS011;48110;47.532;19.078;2023-05-10T13:22:09;4.03;;;1.17;;
62123;SDS011;48110;47.532;19.078;2023-05-10T13:25:12;4.70;;;1.35;;
62123;SDS011;48110;47.532;19.078;2023-05-10T13:28:15;3.42;;;1.85;;
62123;SDS011;48110;47.532;19.078;2023-05-10T13:31:17;24.33;;;1.67;;
62123;SDS011;48110;47.532;19.078;2023-05-10T13:34:20;3.80;;;1.20;;
62123;SDS011;48110;47.532;19.078;2023-05-10T13:37:23;4.03;;;1.50;;
62123;SDS011;48110;47.532;19.078;2023-05-10T13:40:25;8.25;;;1.30;;
62123;SDS011;48110;47.532;19.078;2023-05-10T13:43:28;4.68;;;1.62;;
62123;SDS011;48110;47.532;19.078;2023-05-10T13:46:31;2.47;;;1.30;;
62123;SDS011;48110;47.532;19.078;2023-05-10T13:49:34;3.90;;;1.42;;
62123;SDS011;48110;47.532;19.078;2023-05-10T13:52:37;17.83;;;1.55;;
62123;SDS011;48110;47.532;19.078;2023-05-10T13:55:40;6.40;;;1.25;;
62123;SDS011;48110;47.532;19.078;2023-05-10T13:58:42;29.27;;;2.47;;
62123;SDS011;48110;47.532;19.078;2023-05-10T14:01:45;5.18;;;1.00;;
62123;SDS011;48110;47.532;19.078;2023-05-10T14:04:48;10.85;;;1.40;;
62123;SDS011;48110;47.532;19.078;2023-05-10T14:07:50;6.95;;;1.27;;
62123;SDS011;48110;47.532;19.078;2023-05-10T14:10:54;6.78;;;1.17;;
62123;SDS011;48110;47.532;19.078;2023-05-10T14:13:58;2.20;;;1.00;;
62123;SDS011;48110;47.532;19.078;2023-05-10T14:17:01;3.67;;;1.20;;
62123;SDS011;48110;47.532;19.078;2023-05-10T14:20:04;6.95;;;1.30;;
62123;SDS011;48110;47.532;19.078;2023-05-10T14:23:07;5.53;;;1.00;;
62123;SDS011;48110;47.532;19.078;2023-05-10T14:26:13;6.53;;;1.30;;
62123;SDS011;48110;47.532;19.078;2023-05-10T14:29:15;19.62;;;1.90;;
62123;SDS011;48110;47.532;19.078;2023-05-10T14:32:18;4.93;;;1.30;;
62123;SDS011;48110;47.532;19.078;2023-05-10T14:35:21;6.18;;;1.30;;
62123;SDS011;48110;47.532;19.078;2023-05-10T14:38:24;3.62;;;1.48;;
62123;SDS011;48110;47.532;19.078;2023-05-10T14:41:27;9.15;;;1.17;;
62123;SDS011;48110;47.532;19.078;2023-05-10T14:44:29;3.67;;;1.27;;
62123;SDS011;48110;47.532;19.078;2023-05-10T14:47:32;7.45;;;1.10;;
62123;SDS011;48110;47.532;19.078;2023-05-10T14:50:35;8.52;;;1.30;;
62123;SDS011;48110;47.532;19.078;2023-05-10T14:53:39;4.12;;;1.30;;
62123;SDS011;48110;47.532;19.078;2023-05-10T14:56:41;3.95;;;1.10;;
62123;SDS011;48110;47.532;19.078;2023-05-10T14:59:44;5.30;;;1.12;;
62123;SDS011;48110;47.532;19.078;2023-05-10T15:02:47;9.13;;;1.55;;
62123;SDS011;48110;47.532;19.078;2023-05-10T15:05:51;7.72;;;1.10;;
62123;SDS011;48110;47.532;19.078;2023-05-10T15:08:55;11.73;;;1.20;;
62123;SDS011;48110;47.532;19.078;2023-05-10T15:11:57;3.72;;;1.10;;
62123;SDS011;48110;47.532;19.078;2023-05-10T15:15:00;2.70;;;1.10;;
62123;SDS011;48110;47.532;19.078;2023-05-10T15:18:03;1.95;;;1.02;;
62123;SDS011;48110;47.532;19.078;2023-05-10T15:21:07;3.78;;;0.95;;
62123;SDS011;48110;47.532;19.078;2023-05-10T15:24:10;9.13;;;1.05;;
62123;SDS011;48110;47.532;19.078;2023-05-10T15:27:13;4.87;;;1.10;;
62123;SDS011;48110;47.532;19.078;2023-05-10T15:30:15;7.80;;;1.20;;
62123;SDS011;48110;47.532;19.078;2023-05-10T15:33:18;5.90;;;1.10;;
62123;SDS011;48110;47.532;19.078;2023-05-10T15:36:21;1.10;;;1.00;;
62123;SDS011;48110;47.532;19.078;2023-05-10T15:39:24;2.95;;;1.20;;
62123;SDS011;48110;47.532;19.078;2023-05-10T15:42:27;4.37;;;1.30;;
62123;SDS011;48110;47.532;19.078;2023-05-10T15:45:29;4.05;;;1.33;;
62123;SDS011;48110;47.532;19.078;2023-05-10T15:48:32;7.65;;;1.00;;
62123;SDS011;48110;47.532;19.078;2023-05-10T15:51:35;3.50;;;1.23;;
62123;SDS011;48110;47.532;19.078;2023-05-10T15:54:38;7.25;;;1.30;;
62123;SDS011;48110;47.532;19.078;2023-05-10T15:57:41;2.37;;;1.20;;
62123;SDS011;48110;47.532;19.078;2023-05-10T16:00:45;2.00;;;1.30;;
62123;SDS011;48110;47.532;19.078;2023-05-10T16:03:47;4.90;;;1.27;;
62123;SDS011;48110;47.532;19.078;2023-05-10T16:06:50;6.62;;;1.62;;
62123;SDS011;48110;47.532;19.078;2023-05-10T16:09:52;4.60;;;1.37;;
62123;SDS011;48110;47.532;19.078;2023-05-10T16:12:55;3.05;;;1.23;;
62123;SDS011;48110;47.532;19.078;2023-05-10T16:15:58;2.22;;;1.30;;
62123;SDS011;48110;47.532;19.078;2023-05-10T16:19:01;6.22;;;1.60;;
62123;SDS011;48110;47.532;19.078;2023-05-10T16:22:05;7.55;;;1.40;;
62123;SDS011;48110;47.532;19.078;2023-05-10T16:25:08;2.55;;;1.20;;
62123;SDS011;48110;47.532;19.078;2023-05-10T16:28:14;5.05;;;1.20;;
62123;SDS011;48110;47.532;19.078;2023-05-10T16:31:17;3.10;;;1.40;;
62123;SDS011;48110;47.532;19.078;2023-05-10T16:34:21;4.32;;;1.48;;
62123;SDS011;48110;47.532;19.078;2023-05-10T16:37:26;2.67;;;1.20;;
62123;SDS011;48110;47.532;19.078;2023-05-10T16:40:29;5.35;;;1.70;;
62123;SDS011;48110;47.532;19.078;2023-05-10T16:43:32;4.05;;;1.55;;
62123;SDS011;48110;47.532;19.078;2023-05-10T16:46:35;4.57;;;1.50;;
62123;SDS011;48110;47.532;19.078;2023-05-10T16:49:38;6.97;;;1.45;;
62123;SDS011;48110;47.532;19.078;2023-05-10T16:52:41;6.28;;;1.73;;
62123;SDS011;48110;47.532;19.078;2023-05-10T16:55:44;8.45;;;2.00;;
62123;SDS011;48110;47.532;19.078;2023-05-10T16:58:46;5.87;;;1.55;;
62123;SDS011;48110;47.532;19.078;2023-05-10T17:01:53;7.65;;;1.62;;
62123;SDS011;48110;47.532;19.078;2023-05-10T17:04:56;3.78;;;1.67;;
62123;SDS011;48110;47.532;19.078;2023-05-10T17:07:59;6.20;;;1.83;;
62123;SDS011;48110;47.532;19.078;2023-05-10T17:11:02;6.75;;;2.10;;
62123;SDS011;48110;47.532;19.078;2023-05-10T17:14:05;4.47;;;1.80;;
62123;SDS011;48110;47.532;19.078;2023-05-10T17:17:08;3.37;;;1.70;;
62123;SDS011;48110;47.532;19.078;2023-05-10T17:20:11;4.35;;;1.75;;
62123;SDS011;48110;47.532;19.078;2023-05-10T17:23:14;5.25;;;1.77;;
62123;SDS011;48110;47.532;19.078;2023-05-10T17:26:16;2.22;;;1.70;;
62123;SDS011;48110;47.532;19.078;2023-05-10T17:29:19;3.58;;;1.92;;
62123;SDS011;48110;47.532;19.078;2023-05-10T17:32:22;4.12;;;1.90;;
62123;SDS011;48110;47.532;19.078;2023-05-10T17:35:25;4.45;;;1.90;;
62123;SDS011;48110;47.532;19.078;2023-05-10T17:38:28;3.60;;;1.70;;
62123;SDS011;48110;47.532;19.078;2023-05-10T17:41:30;4.62;;;2.10;;
62123;SDS011;48110;47.532;19.078;2023-05-10T17:44:33;3.30;;;1.70;;
62123;SDS011;48110;47.532;19.078;2023-05-10T17:47:36;5.62;;;2.10;;
62123;SDS011;48110;47.532;19.078;2023-05-10T17:50:42;4.47;;;1.70;;
62123;SDS011;48110;47.532;19.078;2023-05-10T17:53:45;8.52;;;2.40;;
62123;SDS011;48110;47.532;19.078;2023-05-10T17:56:47;7.12;;;1.85;;
62123;SDS011;48110;47.532;19.078;2023-05-10T17:59:50;2.78;;;2.03;;
62123;SDS011;48110;47.532;19.078;2023-05-10T18:02:53;4.93;;;2.00;;
62123;SDS011;48110;47.532;19.078;2023-05-10T18:05:56;2.67;;;1.92;;
62123;SDS011;48110;47.532;19.078;2023-05-10T18:08:58;3.50;;;1.83;;
62123;SDS011;48110;47.532;19.078;2023-05-10T18:12:01;5.75;;;2.10;;
62123;SDS011;48110;47.532;19.078;2023-05-10T18:15:04;5.15;;;1.90;;
62123;SDS011;48110;47.532;19.078;2023-05-10T18:18:08;2.58;;;1.85;;
62123;SDS011;48110;47.532;19.078;2023-05-10T18:21:12;5.97;;;1.80;;
62123;SDS011;48110;47.532;19.078;2023-05-10T18:24:15;5.00;;;1.83;;
62123;SDS011;48110;47.532;19.078;2023-05-10T18:27:24;2.40;;;1.63;;
62123;SDS011;48110;47.532;19.078;2023-05-10T18:30:28;7.25;;;2.17;;
62123;SDS011;48110;47.532;19.078;2023-05-10T18:33:30;5.32;;;2.10;;
62123;SDS011;48110;47.532;19.078;2023-05-10T18:36:33;2.78;;;2.00;;
62123;SDS011;48110;47.532;19.078;2023-05-10T18:39:36;4.07;;;1.85;;
62123;SDS011;48110;47.532;19.078;2023-05-10T18:42:40;4.93;;;1.90;;
62123;SDS011;48110;47.532;19.078;2023-05-10T18:45:48;4.53;;;1.75;;
62123;SDS011;48110;47.532;19.078;2023-05-10T18:48:53;4.35;;;2.17;;